sensor_id;sensor_type;location;lat;lon;timestamp;temperature;humidity
36660;DHT22;22654;51.054;3.654;2022-10-16T00:00:36;14.20;99.90
36660;DHT22;22654;51.054;3.654;2022-10-16T00:03:03;14.10;99.90
36660;DHT22;22654;51.054;3.654;2022-10-16T00:05:29;14.10;99.90
36660;DHT22;22654;51.054;3.654;2022-10-16T00:07:55;14.00;99.90
36660;DHT22;22654;51.054;3.654;2022-10-16T00:10:21;13.90;99.90
36660;DHT22;22654;51.054;3.654;2022-10-16T00:12:47;14.00;99.90
36660;DHT22;22654;51.054;3.654;2022-10-16T00:15:14;14.00;99.90
36660;DHT22;22654;51.054;3.654;2022-10-16T00:17:40;14.00;99.90
36660;DHT22;22654;51.054;3.654;2022-10-16T00:20:09;13.90;99.90
36660;DHT22;22654;51.054;3.654;2022-10-16T00:22:34;13.90;99.90
36660;DHT22;22654;51.054;3.654;2022-10-16T00:25:00;13.80;99.90
36660;DHT22;22654;51.054;3.654;2022-10-16T00:27:26;13.70;99.90
36660;DHT22;22654;51.054;3.654;2022-10-16T00:29:53;13.50;99.90
36660;DHT22;22654;51.054;3.654;2022-10-16T00:32:19;13.40;99.90
36660;DHT22;22654;51.054;3.654;2022-10-16T00:34:45;13.30;99.90
36660;DHT22;22654;51.054;3.654;2022-10-16T00:37:12;13.20;99.90
36660;DHT22;22654;51.054;3.654;2022-10-16T00:39:38;13.20;99.90
36660;DHT22;22654;51.054;3.654;2022-10-16T00:42:05;13.10;99.90
36660;DHT22;22654;51.054;3.654;2022-10-16T00:44:54;13.20;99.90
36660;DHT22;22654;51.054;3.654;2022-10-16T00:47:34;13.40;99.90
36660;DHT22;22654;51.054;3.654;2022-10-16T00:52:46;13.30;99.90
36660;DHT22;22654;51.054;3.654;2022-10-16T00:55:14;13.30;99.90
36660;DHT22;22654;51.054;3.654;2022-10-16T00:57:41;13.30;99.90
36660;DHT22;22654;51.054;3.654;2022-10-16T01:00:10;13.40;99.90
36660;DHT22;22654;51.054;3.654;2022-10-16T01:02:36;13.40;99.90
36660;DHT22;22654;51.054;3.654;2022-10-16T01:05:02;13.60;99.90
36660;DHT22;22654;51.054;3.654;2022-10-16T01:13:01;13.50;99.90
36660;DHT22;22654;51.054;3.654;2022-10-16T01:20:37;13.30;99.90
36660;DHT22;22654;51.054;3.654;2022-10-16T01:26:10;13.50;99.90
36660;DHT22;22654;51.054;3.654;2022-10-16T01:31:30;13.30;99.90
36660;DHT22;22654;51.054;3.654;2022-10-16T01:34:05;13.30;99.90
36660;DHT22;22654;51.054;3.654;2022-10-16T01:36:49;13.30;99.90
36660;DHT22;22654;51.054;3.654;2022-10-16T01:39:37;13.20;99.90
36660;DHT22;22654;51.054;3.654;2022-10-16T01:42:09;13.20;99.90
36660;DHT22;22654;51.054;3.654;2022-10-16T01:44:37;13.10;99.90
36660;DHT22;22654;51.054;3.654;2022-10-16T01:47:04;13.10;99.90
36660;DHT22;22654;51.054;3.654;2022-10-16T01:49:33;13.20;99.90
36660;DHT22;22654;51.054;3.654;2022-10-16T01:52:03;13.20;99.90
36660;DHT22;22654;51.054;3.654;2022-10-16T01:54:32;13.20;99.90
36660;DHT22;22654;51.054;3.654;2022-10-16T01:57:00;13.30;99.90
36660;DHT22;22654;51.054;3.654;2022-10-16T01:59:35;13.40;99.90
36660;DHT22;22654;51.054;3.654;2022-10-16T02:02:06;13.30;99.90
36660;DHT22;22654;51.054;3.654;2022-10-16T02:04:38;13.20;99.90
36660;DHT22;22654;51.054;3.654;2022-10-16T02:07:06;13.10;99.90
36660;DHT22;22654;51.054;3.654;2022-10-16T02:09:34;13.20;99.90
36660;DHT22;22654;51.054;3.654;2022-10-16T02:12:06;13.30;99.90
36660;DHT22;22654;51.054;3.654;2022-10-16T02:14:40;13.20;99.90
36660;DHT22;22654;51.054;3.654;2022-10-16T02:17:14;13.40;99.90
36660;DHT22;22654;51.054;3.654;2022-10-16T02:19:42;13.40;99.90
36660;DHT22;22654;51.054;3.654;2022-10-16T02:22:11;13.40;99.90
36660;DHT22;22654;51.054;3.654;2022-10-16T02:30:11;13.40;99.90
36660;DHT22;22654;51.054;3.654;2022-10-16T02:32:41;13.50;99.90
36660;DHT22;22654;51.054;3.654;2022-10-16T02:35:08;13.40;99.90
36660;DHT22;22654;51.054;3.654;2022-10-16T02:37:35;13.30;99.90
36660;DHT22;22654;51.054;3.654;2022-10-16T02:40:01;13.30;99.90
36660;DHT22;22654;51.054;3.654;2022-10-16T02:42:33;13.30;99.90
36660;DHT22;22654;51.054;3.654;2022-10-16T02:44:59;13.30;99.90
36660;DHT22;22654;51.054;3.654;2022-10-16T02:47:25;13.40;99.90
36660;DHT22;22654;51.054;3.654;2022-10-16T02:49:51;13.30;99.90
36660;DHT22;22654;51.054;3.654;2022-10-16T02:52:17;13.30;99.90
36660;DHT22;22654;51.054;3.654;2022-10-16T02:54:43;13.30;99.90
36660;DHT22;22654;51.054;3.654;2022-10-16T02:57:11;13.20;99.90
36660;DHT22;22654;51.054;3.654;2022-10-16T02:59:37;13.10;99.90
36660;DHT22;22654;51.054;3.654;2022-10-16T03:02:03;13.20;99.90
36660;DHT22;22654;51.054;3.654;2022-10-16T03:04:29;13.20;99.90
36660;DHT22;22654;51.054;3.654;2022-10-16T03:06:55;13.20;99.90
36660;DHT22;22654;51.054;3.654;2022-10-16T03:09:20;13.20;99.90
36660;DHT22;22654;51.054;3.654;2022-10-16T03:11:46;13.30;99.90
36660;DHT22;22654;51.054;3.654;2022-10-16T03:14:12;13.30;99.90
36660;DHT22;22654;51.054;3.654;2022-10-16T03:16:38;13.20;99.90
36660;DHT22;22654;51.054;3.654;2022-10-16T03:19:03;13.10;99.90
36660;DHT22;22654;51.054;3.654;2022-10-16T03:21:29;13.20;99.90
36660;DHT22;22654;51.054;3.654;2022-10-16T03:23:55;13.20;99.90
36660;DHT22;22654;51.054;3.654;2022-10-16T03:26:21;13.10;99.90
36660;DHT22;22654;51.054;3.654;2022-10-16T03:28:47;13.20;99.90
36660;DHT22;22654;51.054;3.654;2022-10-16T03:31:12;13.20;99.90
36660;DHT22;22654;51.054;3.654;2022-10-16T03:33:38;13.20;99.90
36660;DHT22;22654;51.054;3.654;2022-10-16T03:36:04;13.10;99.90
36660;DHT22;22654;51.054;3.654;2022-10-16T03:38:30;13.00;99.90
36660;DHT22;22654;51.054;3.654;2022-10-16T03:40:56;12.90;99.90
36660;DHT22;22654;51.054;3.654;2022-10-16T03:43:22;13.00;99.90
36660;DHT22;22654;51.054;3.654;2022-10-16T03:45:49;13.10;99.90
36660;DHT22;22654;51.054;3.654;2022-10-16T03:48:15;13.10;99.90
36660;DHT22;22654;51.054;3.654;2022-10-16T03:50:41;13.00;99.90
36660;DHT22;22654;51.054;3.654;2022-10-16T03:53:07;13.10;99.90
36660;DHT22;22654;51.054;3.654;2022-10-16T03:55:34;13.00;99.90
36660;DHT22;22654;51.054;3.654;2022-10-16T03:58:00;12.90;99.90
36660;DHT22;22654;51.054;3.654;2022-10-16T04:00:26;12.90;99.90
36660;DHT22;22654;51.054;3.654;2022-10-16T04:02:52;12.90;99.90
36660;DHT22;22654;51.054;3.654;2022-10-16T04:05:18;12.80;99.90
36660;DHT22;22654;51.054;3.654;2022-10-16T04:07:43;12.90;99.90
36660;DHT22;22654;51.054;3.654;2022-10-16T04:10:09;12.80;99.90
36660;DHT22;22654;51.054;3.654;2022-10-16T04:12:35;12.90;99.90
36660;DHT22;22654;51.054;3.654;2022-10-16T04:15:01;12.90;99.90
36660;DHT22;22654;51.054;3.654;2022-10-16T04:17:27;12.80;99.90
36660;DHT22;22654;51.054;3.654;2022-10-16T04:19:53;12.80;99.90
36660;DHT22;22654;51.054;3.654;2022-10-16T04:22:22;12.70;99.90
36660;DHT22;22654;51.054;3.654;2022-10-16T04:24:50;12.70;99.90
36660;DHT22;22654;51.054;3.654;2022-10-16T04:27:16;12.70;99.90
36660;DHT22;22654;51.054;3.654;2022-10-16T04:29:43;12.70;99.90
36660;DHT22;22654;51.054;3.654;2022-10-16T04:32:09;12.80;99.90
36660;DHT22;22654;51.054;3.654;2022-10-16T04:34:35;12.70;99.90
36660;DHT22;22654;51.054;3.654;2022-10-16T04:37:00;12.70;99.90
36660;DHT22;22654;51.054;3.654;2022-10-16T04:39:26;12.70;99.90
36660;DHT22;22654;51.054;3.654;2022-10-16T04:41:52;12.80;99.90
36660;DHT22;22654;51.054;3.654;2022-10-16T04:44:18;12.70;99.90
36660;DHT22;22654;51.054;3.654;2022-10-16T04:46:44;12.70;99.90
36660;DHT22;22654;51.054;3.654;2022-10-16T04:49:09;12.80;99.90
36660;DHT22;22654;51.054;3.654;2022-10-16T04:51:35;12.70;99.90
36660;DHT22;22654;51.054;3.654;2022-10-16T04:54:01;12.80;99.90
36660;DHT22;22654;51.054;3.654;2022-10-16T04:56:27;12.80;99.90
36660;DHT22;22654;51.054;3.654;2022-10-16T04:58:53;12.90;99.90
36660;DHT22;22654;51.054;3.654;2022-10-16T05:01:19;12.80;99.90
36660;DHT22;22654;51.054;3.654;2022-10-16T05:03:44;12.70;99.90
36660;DHT22;22654;51.054;3.654;2022-10-16T05:06:11;12.90;99.90
36660;DHT22;22654;51.054;3.654;2022-10-16T05:08:36;12.80;99.90
36660;DHT22;22654;51.054;3.654;2022-10-16T05:11:02;12.80;99.90
36660;DHT22;22654;51.054;3.654;2022-10-16T05:13:28;12.80;99.90
36660;DHT22;22654;51.054;3.654;2022-10-16T05:15:54;12.80;99.90
36660;DHT22;22654;51.054;3.654;2022-10-16T05:18:20;12.90;99.90
36660;DHT22;22654;51.054;3.654;2022-10-16T05:20:45;12.90;99.90
36660;DHT22;22654;51.054;3.654;2022-10-16T05:23:11;13.10;99.90
36660;DHT22;22654;51.054;3.654;2022-10-16T05:25:37;13.20;99.90
36660;DHT22;22654;51.054;3.654;2022-10-16T05:28:03;13.20;99.90
36660;DHT22;22654;51.054;3.654;2022-10-16T05:30:29;13.30;99.90
36660;DHT22;22654;51.054;3.654;2022-10-16T05:32:55;13.30;99.90
36660;DHT22;22654;51.054;3.654;2022-10-16T05:35:21;13.40;99.90
36660;DHT22;22654;51.054;3.654;2022-10-16T05:37:47;13.40;99.90
36660;DHT22;22654;51.054;3.654;2022-10-16T05:40:14;13.50;99.90
36660;DHT22;22654;51.054;3.654;2022-10-16T05:42:40;13.50;99.90
36660;DHT22;22654;51.054;3.654;2022-10-16T05:45:10;13.60;99.90
36660;DHT22;22654;51.054;3.654;2022-10-16T05:47:37;13.60;99.90
36660;DHT22;22654;51.054;3.654;2022-10-16T05:50:03;13.40;99.90
36660;DHT22;22654;51.054;3.654;2022-10-16T05:55:15;13.20;99.90
36660;DHT22;22654;51.054;3.654;2022-10-16T05:57:41;13.20;99.90
36660;DHT22;22654;51.054;3.654;2022-10-16T06:00:07;13.10;99.90
36660;DHT22;22654;51.054;3.654;2022-10-16T06:02:38;13.20;99.90
36660;DHT22;22654;51.054;3.654;2022-10-16T06:05:04;13.00;99.90
36660;DHT22;22654;51.054;3.654;2022-10-16T06:07:34;13.00;99.90
36660;DHT22;22654;51.054;3.654;2022-10-16T06:10:01;13.10;99.90
36660;DHT22;22654;51.054;3.654;2022-10-16T06:12:27;13.10;99.90
36660;DHT22;22654;51.054;3.654;2022-10-16T06:14:53;13.10;99.90
36660;DHT22;22654;51.054;3.654;2022-10-16T06:17:18;13.10;99.90
36660;DHT22;22654;51.054;3.654;2022-10-16T06:19:44;13.00;99.90
36660;DHT22;22654;51.054;3.654;2022-10-16T06:22:10;13.10;99.90
36660;DHT22;22654;51.054;3.654;2022-10-16T06:24:36;12.90;99.90
36660;DHT22;22654;51.054;3.654;2022-10-16T06:27:03;12.90;99.90
36660;DHT22;22654;51.054;3.654;2022-10-16T06:29:33;13.00;99.90
36660;DHT22;22654;51.054;3.654;2022-10-16T06:31:59;13.00;99.90
36660;DHT22;22654;51.054;3.654;2022-10-16T06:34:25;13.10;99.90
36660;DHT22;22654;51.054;3.654;2022-10-16T06:36:51;13.10;99.90
36660;DHT22;22654;51.054;3.654;2022-10-16T06:39:17;13.30;99.90
36660;DHT22;22654;51.054;3.654;2022-10-16T06:41:43;13.20;99.90
36660;DHT22;22654;51.054;3.654;2022-10-16T06:44:17;13.30;99.90
36660;DHT22;22654;51.054;3.654;2022-10-16T06:46:43;13.20;99.90
36660;DHT22;22654;51.054;3.654;2022-10-16T06:49:09;13.20;99.90
36660;DHT22;22654;51.054;3.654;2022-10-16T06:51:35;13.30;99.90
36660;DHT22;22654;51.054;3.654;2022-10-16T06:54:02;13.40;99.90
36660;DHT22;22654;51.054;3.654;2022-10-16T06:56:29;13.40;99.90
36660;DHT22;22654;51.054;3.654;2022-10-16T06:58:57;13.50;99.90
36660;DHT22;22654;51.054;3.654;2022-10-16T07:01:24;13.60;99.90
36660;DHT22;22654;51.054;3.654;2022-10-16T07:03:50;13.70;99.90
36660;DHT22;22654;51.054;3.654;2022-10-16T07:06:18;13.70;99.90
36660;DHT22;22654;51.054;3.654;2022-10-16T07:08:45;13.70;99.90
36660;DHT22;22654;51.054;3.654;2022-10-16T07:11:14;13.70;99.90
36660;DHT22;22654;51.054;3.654;2022-10-16T07:13:42;13.80;99.90
36660;DHT22;22654;51.054;3.654;2022-10-16T07:16:11;13.80;99.90
36660;DHT22;22654;51.054;3.654;2022-10-16T07:18:38;13.80;99.90
36660;DHT22;22654;51.054;3.654;2022-10-16T07:21:08;13.80;99.90
36660;DHT22;22654;51.054;3.654;2022-10-16T07:23:34;13.80;99.90
36660;DHT22;22654;51.054;3.654;2022-10-16T07:26:00;13.80;99.90
36660;DHT22;22654;51.054;3.654;2022-10-16T07:28:26;13.80;99.90
36660;DHT22;22654;51.054;3.654;2022-10-16T07:30:52;13.90;99.90
36660;DHT22;22654;51.054;3.654;2022-10-16T07:33:17;13.90;99.90
36660;DHT22;22654;51.054;3.654;2022-10-16T07:35:51;13.90;99.90
36660;DHT22;22654;51.054;3.654;2022-10-16T07:38:17;13.90;99.90
36660;DHT22;22654;51.054;3.654;2022-10-16T07:40:44;14.00;99.90
36660;DHT22;22654;51.054;3.654;2022-10-16T07:43:10;13.90;99.90
36660;DHT22;22654;51.054;3.654;2022-10-16T07:45:36;14.20;99.90
36660;DHT22;22654;51.054;3.654;2022-10-16T07:48:02;14.30;99.90
36660;DHT22;22654;51.054;3.654;2022-10-16T07:50:28;14.30;99.90
36660;DHT22;22654;51.054;3.654;2022-10-16T07:52:54;14.30;99.90
36660;DHT22;22654;51.054;3.654;2022-10-16T07:55:19;14.30;99.90
36660;DHT22;22654;51.054;3.654;2022-10-16T07:57:45;14.40;99.90
36660;DHT22;22654;51.054;3.654;2022-10-16T08:00:14;14.50;99.90
36660;DHT22;22654;51.054;3.654;2022-10-16T08:02:40;14.70;99.90
36660;DHT22;22654;51.054;3.654;2022-10-16T08:05:07;14.70;99.90
36660;DHT22;22654;51.054;3.654;2022-10-16T08:07:33;14.80;99.90
36660;DHT22;22654;51.054;3.654;2022-10-16T08:09:58;14.90;99.90
36660;DHT22;22654;51.054;3.654;2022-10-16T08:12:25;14.90;99.90
36660;DHT22;22654;51.054;3.654;2022-10-16T08:14:51;14.80;99.90
36660;DHT22;22654;51.054;3.654;2022-10-16T08:17:20;14.70;99.90
36660;DHT22;22654;51.054;3.654;2022-10-16T08:19:46;14.70;99.90
36660;DHT22;22654;51.054;3.654;2022-10-16T08:22:15;14.70;99.90
36660;DHT22;22654;51.054;3.654;2022-10-16T08:24:41;14.80;99.90
36660;DHT22;22654;51.054;3.654;2022-10-16T08:27:07;14.90;99.90
36660;DHT22;22654;51.054;3.654;2022-10-16T08:29:34;14.90;99.90
36660;DHT22;22654;51.054;3.654;2022-10-16T08:32:00;14.90;99.90
36660;DHT22;22654;51.054;3.654;2022-10-16T08:34:26;14.80;99.90
36660;DHT22;22654;51.054;3.654;2022-10-16T08:36:54;14.80;99.90
36660;DHT22;22654;51.054;3.654;2022-10-16T08:39:20;14.90;99.90
36660;DHT22;22654;51.054;3.654;2022-10-16T08:44:51;15.20;99.90
36660;DHT22;22654;51.054;3.654;2022-10-16T08:50:29;15.40;99.90
36660;DHT22;22654;51.054;3.654;2022-10-16T08:52:56;15.50;99.90
36660;DHT22;22654;51.054;3.654;2022-10-16T08:55:37;15.60;99.90
36660;DHT22;22654;51.054;3.654;2022-10-16T08:58:21;15.60;99.90
36660;DHT22;22654;51.054;3.654;2022-10-16T09:00:51;15.60;99.90
36660;DHT22;22654;51.054;3.654;2022-10-16T09:06:38;15.90;99.90
36660;DHT22;22654;51.054;3.654;2022-10-16T09:12:13;16.30;99.90
36660;DHT22;22654;51.054;3.654;2022-10-16T09:15:01;16.40;99.90
36660;DHT22;22654;51.054;3.654;2022-10-16T09:23:25;16.90;99.90
36660;DHT22;22654;51.054;3.654;2022-10-16T09:25:51;17.20;99.90
36660;DHT22;22654;51.054;3.654;2022-10-16T09:28:18;17.40;99.90
36660;DHT22;22654;51.054;3.654;2022-10-16T09:30:45;17.60;99.90
36660;DHT22;22654;51.054;3.654;2022-10-16T09:33:14;17.70;99.90
36660;DHT22;22654;51.054;3.654;2022-10-16T09:35:47;18.00;99.90
36660;DHT22;22654;51.054;3.654;2022-10-16T09:38:27;18.10;99.90
36660;DHT22;22654;51.054;3.654;2022-10-16T09:40:58;18.00;99.90
36660;DHT22;22654;51.054;3.654;2022-10-16T09:43:40;17.70;99.90
36660;DHT22;22654;51.054;3.654;2022-10-16T09:46:09;17.50;99.90
36660;DHT22;22654;51.054;3.654;2022-10-16T09:48:50;17.60;99.90
36660;DHT22;22654;51.054;3.654;2022-10-16T09:51:27;17.80;99.90
36660;DHT22;22654;51.054;3.654;2022-10-16T09:53:59;18.00;99.90
36660;DHT22;22654;51.054;3.654;2022-10-16T09:56:36;18.10;99.90
36660;DHT22;22654;51.054;3.654;2022-10-16T09:59:18;18.40;99.90
36660;DHT22;22654;51.054;3.654;2022-10-16T10:01:51;18.70;99.90
36660;DHT22;22654;51.054;3.654;2022-10-16T10:04:19;18.90;99.90
36660;DHT22;22654;51.054;3.654;2022-10-16T10:06:50;18.90;99.90
36660;DHT22;22654;51.054;3.654;2022-10-16T10:09:25;19.10;99.90
36660;DHT22;22654;51.054;3.654;2022-10-16T10:11:55;19.20;99.90
36660;DHT22;22654;51.054;3.654;2022-10-16T10:16:52;19.60;99.90
36660;DHT22;22654;51.054;3.654;2022-10-16T10:19:23;19.50;99.90
36660;DHT22;22654;51.054;3.654;2022-10-16T10:21:50;19.60;99.90
36660;DHT22;22654;51.054;3.654;2022-10-16T10:24:19;19.80;99.90
36660;DHT22;22654;51.054;3.654;2022-10-16T10:27:00;20.00;99.90
36660;DHT22;22654;51.054;3.654;2022-10-16T10:29:47;20.00;99.90
36660;DHT22;22654;51.054;3.654;2022-10-16T10:35:05;20.30;99.90
36660;DHT22;22654;51.054;3.654;2022-10-16T10:41:54;20.30;99.90
36660;DHT22;22654;51.054;3.654;2022-10-16T10:43:57;20.50;99.90
36660;DHT22;22654;51.054;3.654;2022-10-16T10:46:34;20.60;99.90
36660;DHT22;22654;51.054;3.654;2022-10-16T10:57:10;20.60;99.90
36660;DHT22;22654;51.054;3.654;2022-10-16T11:00:15;20.40;99.90
36660;DHT22;22654;51.054;3.654;2022-10-16T11:03:05;20.50;99.90
36660;DHT22;22654;51.054;3.654;2022-10-16T11:05:40;20.40;99.90
36660;DHT22;22654;51.054;3.654;2022-10-16T11:08:26;20.20;99.90
36660;DHT22;22654;51.054;3.654;2022-10-16T11:11:06;20.10;99.90
36660;DHT22;22654;51.054;3.654;2022-10-16T11:16:15;20.10;99.90
36660;DHT22;22654;51.054;3.654;2022-10-16T11:21:11;19.90;99.90
36660;DHT22;22654;51.054;3.654;2022-10-16T11:26:32;20.30;99.90
36660;DHT22;22654;51.054;3.654;2022-10-16T11:29:02;20.80;99.90
36660;DHT22;22654;51.054;3.654;2022-10-16T11:31:39;21.30;99.90
36660;DHT22;22654;51.054;3.654;2022-10-16T11:34:34;21.50;99.90
36660;DHT22;22654;51.054;3.654;2022-10-16T11:39:29;21.00;99.90
36660;DHT22;22654;51.054;3.654;2022-10-16T11:42:02;20.80;99.90
36660;DHT22;22654;51.054;3.654;2022-10-16T11:47:27;21.10;99.90
36660;DHT22;22654;51.054;3.654;2022-10-16T11:50:17;21.20;99.90
36660;DHT22;22654;51.054;3.654;2022-10-16T11:52:55;21.40;99.90
36660;DHT22;22654;51.054;3.654;2022-10-16T11:55:34;21.80;99.90
36660;DHT22;22654;51.054;3.654;2022-10-16T11:58:08;21.80;99.90
36660;DHT22;22654;51.054;3.654;2022-10-16T12:00:46;21.40;99.90
36660;DHT22;22654;51.054;3.654;2022-10-16T12:03:17;21.50;99.90
36660;DHT22;22654;51.054;3.654;2022-10-16T12:08:30;21.00;99.90
36660;DHT22;22654;51.054;3.654;2022-10-16T12:14:59;20.20;99.90
36660;DHT22;22654;51.054;3.654;2022-10-16T12:16:56;20.10;99.90
36660;DHT22;22654;51.054;3.654;2022-10-16T12:19:23;19.80;99.90
36660;DHT22;22654;51.054;3.654;2022-10-16T12:21:51;19.80;99.90
36660;DHT22;22654;51.054;3.654;2022-10-16T12:24:38;19.80;99.90
36660;DHT22;22654;51.054;3.654;2022-10-16T12:27:30;19.70;99.90
36660;DHT22;22654;51.054;3.654;2022-10-16T12:30:02;19.90;99.90
36660;DHT22;22654;51.054;3.654;2022-10-16T12:34:57;20.50;99.90
36660;DHT22;22654;51.054;3.654;2022-10-16T12:37:33;20.80;99.90
36660;DHT22;22654;51.054;3.654;2022-10-16T12:40:23;20.90;99.90
36660;DHT22;22654;51.054;3.654;2022-10-16T12:42:50;21.00;99.90
36660;DHT22;22654;51.054;3.654;2022-10-16T12:45:33;20.70;99.90
36660;DHT22;22654;51.054;3.654;2022-10-16T12:48:02;20.70;99.90
36660;DHT22;22654;51.054;3.654;2022-10-16T12:50:35;20.60;99.90
36660;DHT22;22654;51.054;3.654;2022-10-16T12:53:03;20.70;99.90
36660;DHT22;22654;51.054;3.654;2022-10-16T12:58:33;20.40;99.90
36660;DHT22;22654;51.054;3.654;2022-10-16T13:03:52;21.10;99.90
36660;DHT22;22654;51.054;3.654;2022-10-16T13:28:04;20.70;99.90
36660;DHT22;22654;51.054;3.654;2022-10-16T13:30:42;20.60;99.90
36660;DHT22;22654;51.054;3.654;2022-10-16T13:35:37;20.90;99.90
36660;DHT22;22654;51.054;3.654;2022-10-16T13:38:25;21.20;99.90
36660;DHT22;22654;51.054;3.654;2022-10-16T13:41:16;21.50;99.90
36660;DHT22;22654;51.054;3.654;2022-10-16T13:43:48;21.80;99.90
36660;DHT22;22654;51.054;3.654;2022-10-16T13:46:20;21.90;99.90
36660;DHT22;22654;51.054;3.654;2022-10-16T13:49:03;21.70;99.90
36660;DHT22;22654;51.054;3.654;2022-10-16T13:51:30;21.60;99.90
36660;DHT22;22654;51.054;3.654;2022-10-16T13:53:56;21.40;99.90
36660;DHT22;22654;51.054;3.654;2022-10-16T13:56:25;21.20;99.90
36660;DHT22;22654;51.054;3.654;2022-10-16T13:59:20;21.10;99.90
36660;DHT22;22654;51.054;3.654;2022-10-16T14:01:47;21.00;99.90
36660;DHT22;22654;51.054;3.654;2022-10-16T14:04:14;21.20;99.90
36660;DHT22;22654;51.054;3.654;2022-10-16T14:06:42;21.00;99.90
36660;DHT22;22654;51.054;3.654;2022-10-16T14:09:29;20.80;99.90
36660;DHT22;22654;51.054;3.654;2022-10-16T14:11:58;20.80;99.90
36660;DHT22;22654;51.054;3.654;2022-10-16T14:14:27;20.70;99.90
36660;DHT22;22654;51.054;3.654;2022-10-16T14:16:56;20.60;99.90
36660;DHT22;22654;51.054;3.654;2022-10-16T14:19:27;20.40;99.90
36660;DHT22;22654;51.054;3.654;2022-10-16T14:21:54;20.20;99.90
36660;DHT22;22654;51.054;3.654;2022-10-16T14:24:31;20.10;99.90
36660;DHT22;22654;51.054;3.654;2022-10-16T14:26:58;20.20;99.90
36660;DHT22;22654;51.054;3.654;2022-10-16T14:29:26;20.30;99.90
36660;DHT22;22654;51.054;3.654;2022-10-16T14:32:00;20.20;99.90
36660;DHT22;22654;51.054;3.654;2022-10-16T14:34:33;20.30;99.90
36660;DHT22;22654;51.054;3.654;2022-10-16T14:37:05;20.00;99.90
36660;DHT22;22654;51.054;3.654;2022-10-16T14:39:33;19.90;99.90
36660;DHT22;22654;51.054;3.654;2022-10-16T14:41:59;19.80;99.90
36660;DHT22;22654;51.054;3.654;2022-10-16T14:44:34;19.70;99.90
36660;DHT22;22654;51.054;3.654;2022-10-16T14:47:20;19.70;99.90
36660;DHT22;22654;51.054;3.654;2022-10-16T14:49:50;19.60;99.90
36660;DHT22;22654;51.054;3.654;2022-10-16T14:52:17;19.50;99.90
36660;DHT22;22654;51.054;3.654;2022-10-16T14:54:43;19.40;99.90
36660;DHT22;22654;51.054;3.654;2022-10-16T14:57:20;19.20;99.90
36660;DHT22;22654;51.054;3.654;2022-10-16T14:59:47;19.10;99.90
36660;DHT22;22654;51.054;3.654;2022-10-16T15:02:34;19.10;99.90
36660;DHT22;22654;51.054;3.654;2022-10-16T15:05:24;19.00;99.90
36660;DHT22;22654;51.054;3.654;2022-10-16T15:07:52;19.10;99.90
36660;DHT22;22654;51.054;3.654;2022-10-16T15:10:20;19.10;99.90
36660;DHT22;22654;51.054;3.654;2022-10-16T15:12:47;19.10;99.90
36660;DHT22;22654;51.054;3.654;2022-10-16T15:15:24;19.10;99.90
36660;DHT22;22654;51.054;3.654;2022-10-16T15:17:52;19.10;99.90
36660;DHT22;22654;51.054;3.654;2022-10-16T15:20:25;19.00;99.90
36660;DHT22;22654;51.054;3.654;2022-10-16T15:22:52;19.00;99.90
36660;DHT22;22654;51.054;3.654;2022-10-16T15:25:37;19.20;99.90
36660;DHT22;22654;51.054;3.654;2022-10-16T15:28:04;19.30;99.90
36660;DHT22;22654;51.054;3.654;2022-10-16T15:30:30;19.40;99.90
36660;DHT22;22654;51.054;3.654;2022-10-16T15:32:56;19.40;99.90
36660;DHT22;22654;51.054;3.654;2022-10-16T15:35:22;19.20;99.90
36660;DHT22;22654;51.054;3.654;2022-10-16T15:37:51;19.20;99.90
36660;DHT22;22654;51.054;3.654;2022-10-16T15:40:19;19.00;99.90
36660;DHT22;22654;51.054;3.654;2022-10-16T15:42:45;19.10;99.90
36660;DHT22;22654;51.054;3.654;2022-10-16T15:45:15;19.00;99.90
36660;DHT22;22654;51.054;3.654;2022-10-16T15:47:41;18.90;99.90
36660;DHT22;22654;51.054;3.654;2022-10-16T15:50:10;18.90;99.90
36660;DHT22;22654;51.054;3.654;2022-10-16T15:52:37;18.80;99.90
36660;DHT22;22654;51.054;3.654;2022-10-16T15:55:06;18.70;99.90
36660;DHT22;22654;51.054;3.654;2022-10-16T15:57:32;18.40;99.90
36660;DHT22;22654;51.054;3.654;2022-10-16T15:59:58;18.30;99.90
36660;DHT22;22654;51.054;3.654;2022-10-16T16:02:24;18.30;99.90
36660;DHT22;22654;51.054;3.654;2022-10-16T16:04:50;18.20;99.90
36660;DHT22;22654;51.054;3.654;2022-10-16T16:07:16;18.20;99.90
36660;DHT22;22654;51.054;3.654;2022-10-16T16:09:42;18.10;99.90
36660;DHT22;22654;51.054;3.654;2022-10-16T16:12:09;18.00;99.90
36660;DHT22;22654;51.054;3.654;2022-10-16T16:14:35;18.10;99.90
36660;DHT22;22654;51.054;3.654;2022-10-16T16:17:01;18.30;99.90
36660;DHT22;22654;51.054;3.654;2022-10-16T16:19:27;18.10;99.90
36660;DHT22;22654;51.054;3.654;2022-10-16T16:21:53;18.00;99.90
36660;DHT22;22654;51.054;3.654;2022-10-16T16:24:19;18.00;99.90
36660;DHT22;22654;51.054;3.654;2022-10-16T16:26:45;17.80;99.90
36660;DHT22;22654;51.054;3.654;2022-10-16T16:29:12;17.60;99.90
36660;DHT22;22654;51.054;3.654;2022-10-16T16:31:40;17.50;99.90
36660;DHT22;22654;51.054;3.654;2022-10-16T16:34:07;17.40;99.90
36660;DHT22;22654;51.054;3.654;2022-10-16T16:36:33;17.30;99.90
36660;DHT22;22654;51.054;3.654;2022-10-16T16:38:59;17.70;99.90
36660;DHT22;22654;51.054;3.654;2022-10-16T16:41:29;17.80;99.90
36660;DHT22;22654;51.054;3.654;2022-10-16T16:44:00;17.50;99.90
36660;DHT22;22654;51.054;3.654;2022-10-16T16:46:27;17.40;99.90
36660;DHT22;22654;51.054;3.654;2022-10-16T16:48:54;17.60;99.90
36660;DHT22;22654;51.054;3.654;2022-10-16T16:51:21;17.40;99.90
36660;DHT22;22654;51.054;3.654;2022-10-16T16:53:49;17.20;99.90
36660;DHT22;22654;51.054;3.654;2022-10-16T16:56:15;17.00;99.90
36660;DHT22;22654;51.054;3.654;2022-10-16T16:58:44;16.90;99.90
36660;DHT22;22654;51.054;3.654;2022-10-16T17:01:13;16.90;99.90
36660;DHT22;22654;51.054;3.654;2022-10-16T17:03:42;16.90;99.90
36660;DHT22;22654;51.054;3.654;2022-10-16T17:06:12;16.90;99.90
36660;DHT22;22654;51.054;3.654;2022-10-16T17:08:42;17.10;99.90
36660;DHT22;22654;51.054;3.654;2022-10-16T17:11:14;17.20;99.90
36660;DHT22;22654;51.054;3.654;2022-10-16T17:13:41;17.10;99.90
36660;DHT22;22654;51.054;3.654;2022-10-16T17:16:08;17.00;99.90
36660;DHT22;22654;51.054;3.654;2022-10-16T17:18:35;17.20;99.90
36660;DHT22;22654;51.054;3.654;2022-10-16T17:21:04;17.50;99.90
36660;DHT22;22654;51.054;3.654;2022-10-16T17:23:30;17.40;99.90
36660;DHT22;22654;51.054;3.654;2022-10-16T17:26:01;17.30;99.90
36660;DHT22;22654;51.054;3.654;2022-10-16T17:28:27;17.40;99.90
36660;DHT22;22654;51.054;3.654;2022-10-16T17:30:53;17.40;99.90
36660;DHT22;22654;51.054;3.654;2022-10-16T17:33:19;17.50;99.90
36660;DHT22;22654;51.054;3.654;2022-10-16T17:35:46;17.60;99.90
36660;DHT22;22654;51.054;3.654;2022-10-16T17:38:13;17.70;99.90